createdAt,value
2018-02-04T00:00:48.544Z,3.00
2018-02-04T00:03:16.822Z,3.00
2018-02-04T00:05:44.359Z,3.00
2018-02-04T00:08:11.867Z,3.10
2018-02-04T00:10:39.399Z,3.10
2018-02-04T00:13:06.902Z,3.00
2018-02-04T00:15:34.442Z,2.90
2018-02-04T00:18:01.947Z,2.90
2018-02-04T00:20:29.483Z,2.70
2018-02-04T00:22:56.995Z,2.70
2018-02-04T00:25:24.548Z,2.60
2018-02-04T00:27:52.055Z,2.60
2018-02-04T00:30:20.324Z,2.50
2018-02-04T00:32:47.879Z,2.50
2018-02-04T00:35:15.389Z,2.50
2018-02-04T00:37:43.696Z,2.50
2018-02-04T00:40:11.202Z,2.50
2018-02-04T00:42:38.739Z,2.40
2018-02-04T00:45:06.249Z,2.40
2018-02-04T00:47:33.793Z,2.40
2018-02-04T00:50:01.295Z,2.40
2018-02-04T00:52:28.854Z,2.40
2018-02-04T00:54:56.367Z,2.40
2018-02-04T00:57:24.674Z,2.40
2018-02-04T00:59:52.175Z,2.40
2018-02-04T01:02:19.682Z,2.40
2018-02-04T01:04:47.223Z,2.30
2018-02-04T01:07:14.746Z,2.20
2018-02-04T01:09:43.048Z,2.30
2018-02-04T01:12:10.551Z,2.30
2018-02-04T01:14:38.108Z,2.40
2018-02-04T01:17:05.622Z,2.40
2018-02-04T01:19:33.126Z,2.40
2018-02-04T01:22:00.671Z,2.40
2018-02-04T01:24:28.207Z,2.50
2018-02-04T01:26:55.716Z,2.40
2018-02-04T01:29:23.255Z,2.40
2018-02-04T01:31:50.773Z,2.40
2018-02-04T01:34:19.090Z,2.50
2018-02-04T01:36:46.654Z,2.50
2018-02-04T01:39:14.171Z,2.50
2018-02-04T01:41:41.756Z,2.50
2018-02-04T01:44:09.265Z,2.50
2018-02-04T01:46:36.812Z,2.30
2018-02-04T01:49:04.318Z,2.20
2018-02-04T01:51:32.849Z,2.00
2018-02-04T01:54:00.360Z,1.80
2018-02-04T01:56:28.652Z,1.40
2018-02-04T01:58:56.962Z,1.30
2018-02-04T02:01:24.475Z,1.30
2018-02-04T02:03:52.035Z,1.20
2018-02-04T02:06:20.310Z,1.10
2018-02-04T02:08:47.815Z,1.10
2018-02-04T02:11:15.358Z,1.10
2018-02-04T02:13:42.890Z,0.90
2018-02-04T02:16:10.425Z,0.80
2018-02-04T02:18:37.962Z,0.80
2018-02-04T02:21:05.499Z,0.70
2018-02-04T02:23:33.815Z,0.70
2018-02-04T02:26:01.356Z,0.60
2018-02-04T02:28:29.647Z,0.70
2018-02-04T02:30:57.218Z,0.70
2018-02-04T02:33:25.510Z,0.70
2018-02-04T02:35:53.845Z,0.70
2018-02-04T02:38:21.359Z,0.70
2018-02-04T02:40:48.912Z,0.70
2018-02-04T02:43:16.417Z,0.70
2018-02-04T02:45:43.959Z,0.70
2018-02-04T02:48:11.483Z,0.70
2018-02-04T02:50:39.003Z,0.80
2018-02-04T02:53:06.563Z,0.70
2018-02-04T02:55:34.146Z,0.60
2018-02-04T02:58:01.653Z,0.60
2018-02-04T03:00:29.224Z,0.60
2018-02-04T03:02:57.571Z,0.60
2018-02-04T03:05:25.860Z,0.60
2018-02-04T03:07:53.378Z,0.60
2018-02-04T03:10:21.688Z,0.60
2018-02-04T03:12:49.212Z,0.60
2018-02-04T03:15:16.747Z,0.50
2018-02-04T03:17:44.254Z,0.60
2018-02-04T03:20:11.794Z,0.60
2018-02-04T03:22:39.326Z,0.50
2018-02-04T03:25:06.870Z,0.60
2018-02-04T03:27:34.391Z,0.60
2018-02-04T03:30:01.923Z,0.60
2018-02-04T03:32:30.228Z,0.40
2018-02-04T03:34:57.753Z,0.40
2018-02-04T03:37:25.353Z,0.50
2018-02-04T03:39:52.843Z,0.50
2018-02-04T03:42:21.145Z,0.60
2018-02-04T03:44:48.661Z,0.50
2018-02-04T03:47:16.195Z,0.40
2018-02-04T03:49:43.715Z,0.30
2018-02-04T03:52:11.275Z,0.40
2018-02-04T03:54:38.815Z,0.50
2018-02-04T03:57:06.369Z,0.40
2018-02-04T03:59:33.915Z,0.30
2018-02-04T04:02:01.464Z,0.30
2018-02-04T04:04:29.004Z,0.30
2018-02-04T04:06:56.563Z,0.30
2018-02-04T04:09:24.083Z,0.30
2018-02-04T04:11:51.636Z,0.20
2018-02-04T04:14:19.162Z,0.20
2018-02-04T04:16:46.666Z,0.20
2018-02-04T04:19:14.215Z,0.20
2018-02-04T04:21:41.778Z,0.20
2018-02-04T04:24:09.299Z,0.20
2018-02-04T04:26:36.831Z,0.20
2018-02-04T04:29:04.352Z,0.20
2018-02-04T04:31:31.903Z,0.20
2018-02-04T04:33:59.452Z,0.20
2018-02-04T04:36:26.964Z,0.10
2018-02-04T04:38:54.506Z,0.10
2018-02-04T04:41:22.014Z,0.20
2018-02-04T04:43:49.571Z,0.10
2018-02-04T04:46:17.107Z,0.10
2018-02-04T04:48:44.615Z,0.10
2018-02-04T04:51:12.170Z,0.10
2018-02-04T04:53:39.691Z,0.10
2018-02-04T04:56:08.005Z,0.00
2018-02-04T04:58:35.551Z,-0.10
2018-02-04T05:01:03.893Z,0.10
2018-02-04T05:03:31.423Z,0.00
2018-02-04T05:05:58.982Z,0.10
2018-02-04T05:08:26.507Z,0.10
2018-02-04T05:10:54.055Z,0.10
2018-02-04T05:13:21.573Z,0.10
2018-02-04T05:15:49.114Z,0.00
2018-02-04T05:18:16.647Z,0.00
2018-02-04T05:20:44.948Z,0.00
2018-02-04T05:23:12.497Z,0.00
2018-02-04T05:25:40.079Z,-0.10
2018-02-04T05:28:07.624Z,-0.10
2018-02-04T05:30:35.154Z,-0.10
2018-02-04T05:33:02.692Z,-0.10
2018-02-04T05:35:30.971Z,-0.10
2018-02-04T05:37:58.613Z,-0.10
2018-02-04T05:40:26.136Z,-0.20
2018-02-04T05:42:53.656Z,-0.20
2018-02-04T05:45:21.200Z,-0.30
2018-02-04T05:47:48.713Z,-0.20
2018-02-04T05:50:16.271Z,-0.20
2018-02-04T05:52:43.786Z,-0.20
2018-02-04T05:55:12.121Z,-0.20
2018-02-04T05:57:39.649Z,-0.20
2018-02-04T06:00:07.983Z,-0.20
2018-02-04T06:02:35.492Z,-0.30
2018-02-04T06:05:03.032Z,-0.20
2018-02-04T06:07:30.572Z,-0.30
2018-02-04T06:09:58.144Z,-0.30
2018-02-04T06:12:25.674Z,-0.30
2018-02-04T06:14:53.202Z,-0.30
2018-02-04T06:17:20.771Z,-0.50
2018-02-04T06:19:48.366Z,-0.50
2018-02-04T06:22:16.836Z,-0.40
2018-02-04T06:24:44.391Z,-0.40
2018-02-04T06:27:12.671Z,-0.40
2018-02-04T06:29:40.957Z,-0.40
2018-02-04T06:32:09.274Z,-0.40
2018-02-04T06:34:36.792Z,-0.40
2018-02-04T06:37:04.331Z,-0.40
2018-02-04T06:39:31.885Z,-0.40
2018-02-04T06:41:59.405Z,-0.50
2018-02-04T06:44:26.951Z,-0.50
2018-02-04T06:46:54.476Z,-0.40
2018-02-04T06:49:23.408Z,-0.40
2018-02-04T06:51:50.947Z,-0.50
2018-02-04T06:54:19.251Z,-0.40
2018-02-04T06:56:47.555Z,-0.40
2018-02-04T06:59:15.090Z,-0.40
2018-02-04T07:01:42.614Z,-0.40
2018-02-04T07:04:10.177Z,-0.40
2018-02-04T07:06:37.690Z,-0.40
2018-02-04T07:09:05.212Z,-0.40
2018-02-04T07:11:32.751Z,-0.50
2018-02-04T07:14:00.259Z,-0.50
2018-02-04T07:16:27.843Z,-0.40
2018-02-04T07:18:55.357Z,-0.40
2018-02-04T07:21:22.898Z,-0.40
2018-02-04T07:23:50.467Z,-0.40
2018-02-04T07:26:18.023Z,-0.40
2018-02-04T07:28:45.622Z,-0.30
2018-02-04T07:31:13.126Z,-0.40
2018-02-04T07:33:40.668Z,-0.40
2018-02-04T07:36:08.200Z,-0.30
2018-02-04T07:38:35.716Z,-0.20
2018-02-04T07:41:03.307Z,-0.20
2018-02-04T07:43:30.849Z,-0.20
2018-02-04T07:45:58.404Z,-0.10
2018-02-04T07:48:25.934Z,-0.10
2018-02-04T07:50:54.254Z,-0.20
2018-02-04T07:53:21.807Z,-0.20
2018-02-04T07:55:50.103Z,-0.20
2018-02-04T07:58:17.634Z,-0.20
2018-02-04T08:00:45.168Z,-0.20
2018-02-04T08:03:12.706Z,-0.10
2018-02-04T08:05:41.012Z,-0.10
2018-02-04T08:08:08.553Z,-0.20
2018-02-04T08:10:36.903Z,-0.20
2018-02-04T08:13:04.485Z,-0.20
2018-02-04T08:15:32.007Z,-0.30
2018-02-04T08:17:59.564Z,-0.20
2018-02-04T08:20:27.075Z,-0.10
2018-02-04T08:22:54.614Z,-0.10
2018-02-04T08:25:22.936Z,-0.10
2018-02-04T08:27:50.495Z,-0.10
2018-02-04T08:30:18.050Z,0.00
2018-02-04T08:32:46.341Z,0.00
2018-02-04T08:35:14.628Z,0.00
2018-02-04T08:37:42.181Z,0.00
2018-02-04T08:40:09.730Z,0.00
2018-02-04T08:42:37.239Z,0.10
2018-02-04T08:45:04.769Z,0.00
2018-02-04T08:47:32.276Z,0.00
2018-02-04T08:49:59.814Z,0.00
2018-02-04T08:52:27.339Z,0.00
2018-02-04T08:54:55.663Z,0.00
2018-02-04T08:57:23.174Z,0.00
2018-02-04T08:59:50.690Z,0.00
2018-02-04T09:02:18.220Z,0.00
2018-02-04T09:04:45.731Z,0.10
2018-02-04T09:07:13.271Z,0.20
2018-02-04T09:09:41.610Z,0.20
2018-02-04T09:12:09.139Z,0.20
2018-02-04T09:14:37.415Z,0.30
2018-02-04T09:17:05.719Z,0.30
2018-02-04T09:19:33.262Z,0.30
2018-02-04T09:22:00.779Z,0.30
2018-02-04T09:24:28.292Z,0.30
2018-02-04T09:26:55.861Z,0.30
2018-02-04T09:29:23.365Z,0.40
2018-02-04T09:31:51.670Z,0.40
2018-02-04T09:34:19.959Z,0.50
2018-02-04T09:36:47.475Z,0.40
2018-02-04T09:39:15.015Z,0.40
2018-02-04T09:41:42.554Z,0.40
2018-02-04T09:44:10.074Z,0.70
2018-02-04T09:46:38.605Z,0.70
2018-02-04T09:49:06.120Z,0.60
2018-02-04T09:51:33.635Z,0.60
2018-02-04T09:54:01.170Z,0.70
2018-02-04T09:56:28.680Z,0.70
2018-02-04T09:58:56.219Z,0.70
2018-02-04T10:01:23.731Z,0.70
2018-02-04T10:03:51.282Z,0.70
2018-02-04T10:06:18.784Z,0.80
2018-02-04T10:08:46.326Z,0.70
2018-02-04T10:11:13.843Z,0.80
2018-02-04T10:13:42.138Z,0.70
2018-02-04T10:16:10.427Z,0.90
2018-02-04T10:18:37.965Z,0.80
2018-02-04T10:21:05.541Z,0.90
2018-02-04T10:23:33.113Z,1.10
2018-02-04T10:26:00.671Z,1.10
2018-02-04T10:28:28.259Z,1.20
2018-02-04T10:30:55.776Z,1.20
2018-02-04T10:33:23.306Z,1.30
2018-02-04T10:35:50.819Z,1.20
2018-02-04T10:38:18.372Z,1.20
2018-02-04T10:40:45.902Z,1.20
2018-02-04T10:43:13.476Z,1.30
2018-02-04T10:45:41.790Z,1.10
2018-02-04T10:48:09.302Z,1.00
2018-02-04T10:53:37.904Z,1.30
2018-02-04T10:56:05.425Z,1.50
2018-02-04T10:58:33.101Z,1.50
2018-02-04T11:01:00.697Z,1.60
2018-02-04T11:03:28.260Z,1.50
2018-02-04T11:05:57.101Z,1.50
2018-02-04T11:08:26.090Z,1.50
2018-02-04T11:10:53.988Z,1.50
2018-02-04T11:13:23.466Z,1.50
2018-02-04T11:15:52.839Z,1.40
2018-02-04T11:18:20.379Z,1.30
2018-02-04T11:20:48.914Z,1.10
2018-02-04T11:23:18.340Z,1.00
2018-02-04T11:25:45.921Z,1.10
2018-02-04T11:28:13.583Z,1.10
2018-02-04T11:30:42.318Z,0.90
2018-02-04T11:33:14.132Z,0.90
2018-02-04T11:35:48.415Z,0.90
2018-02-04T11:38:16.780Z,1.10
2018-02-04T11:40:45.963Z,1.00
2018-02-04T11:43:13.548Z,1.00
2018-02-04T11:45:41.943Z,1.10
2018-02-04T11:48:11.458Z,1.00
2018-02-04T11:50:39.828Z,1.00
2018-02-04T11:53:07.368Z,1.00
2018-02-04T11:55:35.665Z,1.20
2018-02-04T11:58:03.988Z,1.20
2018-02-04T12:00:32.335Z,1.20
2018-02-04T12:03:00.449Z,1.20
2018-02-04T12:05:28.765Z,1.20
2018-02-04T12:07:56.335Z,1.20
2018-02-04T12:10:26.670Z,1.30
2018-02-04T12:12:54.266Z,1.40
2018-02-04T12:15:21.819Z,1.50
2018-02-04T12:17:49.372Z,1.30
2018-02-04T12:20:16.948Z,1.30
2018-02-04T12:22:45.240Z,1.20
2018-02-04T12:25:13.585Z,1.20
2018-02-04T12:27:41.118Z,1.20
2018-02-04T12:30:09.503Z,1.30
2018-02-04T12:32:37.833Z,1.20
2018-02-04T12:35:05.417Z,1.00
2018-02-04T12:37:33.403Z,0.90
2018-02-04T12:40:00.962Z,0.90
2018-02-04T12:42:28.527Z,0.80
2018-02-04T12:44:56.055Z,0.80
2018-02-04T12:47:23.592Z,0.80
2018-02-04T12:49:51.145Z,0.80
2018-02-04T12:52:19.456Z,0.80
2018-02-04T12:54:47.051Z,0.70
2018-02-04T12:57:15.340Z,0.80
2018-02-04T12:59:46.939Z,0.80
2018-02-04T13:02:20.983Z,0.60
2018-02-04T13:04:52.890Z,0.60
2018-02-04T13:07:20.569Z,0.70
2018-02-04T13:09:52.485Z,0.80
2018-02-04T13:12:20.264Z,0.70
2018-02-04T13:14:48.595Z,0.90
2018-02-04T13:17:22.179Z,0.80
2018-02-04T13:19:49.857Z,0.90
2018-02-04T13:22:17.381Z,0.90
2018-02-04T13:24:45.189Z,0.90
2018-02-04T13:27:12.762Z,0.90
2018-02-04T13:29:41.077Z,0.90
2018-02-04T13:32:09.357Z,0.80
2018-02-04T13:34:37.752Z,0.80
2018-02-04T13:37:05.302Z,0.90
2018-02-04T13:39:32.883Z,1.00
2018-02-04T13:42:00.353Z,1.00
2018-02-04T13:44:28.660Z,0.90
2018-02-04T13:46:56.999Z,1.00
2018-02-04T13:49:24.609Z,1.00
2018-02-04T13:51:52.135Z,1.00
2018-02-04T13:54:20.406Z,0.90
2018-02-04T13:56:48.018Z,0.90
2018-02-04T13:59:15.552Z,0.90
2018-02-04T14:01:43.130Z,0.90
2018-02-04T14:04:10.725Z,1.00
2018-02-04T14:06:38.360Z,0.90
2018-02-04T14:09:05.960Z,0.90
2018-02-04T14:11:34.671Z,1.00
2018-02-04T14:14:02.221Z,0.90
2018-02-04T14:16:29.799Z,1.00
2018-02-04T14:18:57.348Z,0.90
2018-02-04T14:21:25.411Z,0.80
2018-02-04T14:23:52.963Z,0.80
2018-02-04T14:26:21.249Z,0.50
2018-02-04T14:28:49.631Z,0.50
2018-02-04T14:31:17.225Z,0.50
2018-02-04T14:33:44.804Z,0.60
2018-02-04T14:36:12.377Z,0.60
2018-02-04T14:38:41.079Z,0.70
2018-02-04T14:41:08.695Z,0.70
2018-02-04T14:43:36.545Z,0.50
2018-02-04T14:46:04.064Z,0.50
2018-02-04T14:48:31.887Z,0.60
2018-02-04T14:51:00.250Z,0.60
2018-02-04T14:53:27.819Z,0.60
2018-02-04T14:55:55.929Z,0.60
2018-02-04T14:58:23.897Z,0.70
2018-02-04T15:00:51.763Z,0.70
2018-02-04T15:03:19.348Z,0.70
2018-02-04T15:05:49.319Z,0.70
2018-02-04T15:08:16.876Z,0.80
2018-02-04T15:10:44.502Z,0.80
2018-02-04T15:13:12.554Z,0.90
2018-02-04T15:15:40.203Z,0.90
2018-02-04T15:18:07.789Z,0.90
2018-02-04T15:20:35.669Z,0.80
2018-02-04T15:23:03.205Z,0.90
2018-02-04T15:25:30.793Z,0.80
2018-02-04T15:27:58.330Z,0.80
2018-02-04T15:30:25.927Z,0.80
2018-02-04T15:32:54.282Z,0.80
2018-02-04T15:35:22.755Z,0.80
2018-02-04T15:37:50.340Z,0.80
2018-02-04T15:40:17.945Z,0.80
2018-02-04T15:42:46.548Z,0.90
2018-02-04T15:45:14.477Z,0.80
2018-02-04T15:47:42.115Z,0.80
2018-02-04T15:50:10.600Z,0.40
2018-02-04T15:52:39.429Z,0.40
2018-02-04T15:55:07.897Z,0.50
2018-02-04T15:57:37.417Z,0.50
2018-02-04T16:00:05.852Z,0.50
2018-02-04T16:02:34.214Z,0.40
2018-02-04T16:05:01.906Z,0.40
2018-02-04T16:07:29.483Z,0.40
2018-02-04T16:09:57.234Z,0.40
2018-02-04T16:12:24.911Z,0.50
2018-02-04T16:14:52.743Z,0.60
2018-02-04T16:17:20.405Z,0.70
2018-02-04T16:19:48.836Z,0.90
2018-02-04T16:22:17.162Z,0.80
2018-02-04T16:24:44.951Z,0.80
2018-02-04T16:27:13.753Z,0.70
2018-02-04T16:29:41.430Z,0.70
2018-02-04T16:32:09.039Z,0.70
2018-02-04T16:34:36.905Z,0.60
2018-02-04T16:37:04.992Z,0.50
2018-02-04T16:39:32.725Z,0.50
2018-02-04T16:42:00.304Z,0.40
2018-02-04T16:44:28.118Z,0.40
2018-02-04T16:46:56.872Z,0.30
2018-02-04T16:49:24.433Z,0.30
2018-02-04T16:51:52.035Z,0.20
2018-02-04T16:54:20.726Z,0.20
2018-02-04T16:56:48.332Z,0.20
2018-02-04T16:59:16.815Z,0.20
2018-02-04T17:01:44.377Z,0.20
2018-02-04T17:04:11.939Z,0.10
2018-02-04T17:06:40.860Z,0.20
2018-02-04T17:09:08.406Z,0.20
2018-02-04T17:11:35.956Z,0.10
2018-02-04T17:14:03.548Z,0.00
2018-02-04T17:16:31.865Z,0.00
2018-02-04T17:18:59.403Z,0.00
2018-02-04T17:21:27.045Z,0.10
2018-02-04T17:23:54.631Z,0.10
2018-02-04T17:26:22.898Z,0.20
2018-02-04T17:28:50.436Z,0.10
2018-02-04T17:31:18.767Z,0.10
2018-02-04T17:33:46.567Z,0.10
2018-02-04T17:36:14.889Z,0.00
2018-02-04T17:38:42.468Z,0.00
2018-02-04T17:41:09.996Z,-0.10
2018-02-04T17:43:37.535Z,-0.20
2018-02-04T17:46:05.079Z,-0.20
2018-02-04T17:48:33.392Z,-0.20
2018-02-04T17:51:00.955Z,-0.20
2018-02-04T17:53:30.410Z,-0.20
2018-02-04T17:55:58.701Z,-0.30
2018-02-04T17:58:27.079Z,-0.40
2018-02-04T18:00:54.617Z,-0.40
2018-02-04T18:03:22.940Z,-0.30
2018-02-04T18:05:50.486Z,-0.40
2018-02-04T18:08:18.031Z,-0.40
2018-02-04T18:10:45.593Z,-0.40
2018-02-04T18:13:13.134Z,-0.40
2018-02-04T18:15:41.470Z,-0.40
2018-02-04T18:18:09.020Z,-0.40
2018-02-04T18:20:36.593Z,-0.40
2018-02-04T18:23:04.189Z,-0.30
2018-02-04T18:25:31.735Z,-0.30
2018-02-04T18:27:59.308Z,-0.30
2018-02-04T18:30:26.868Z,-0.20
2018-02-04T18:32:55.167Z,-0.10
2018-02-04T18:35:22.725Z,-0.10
2018-02-04T18:37:50.269Z,-0.10
2018-02-04T18:40:17.867Z,-0.10
2018-02-04T18:42:48.683Z,-0.10
2018-02-04T18:45:16.255Z,-0.20
2018-02-04T18:47:43.796Z,-0.20
2018-02-04T18:50:11.412Z,-0.20
2018-02-04T18:52:39.739Z,0.00
2018-02-04T18:55:07.309Z,0.00
2018-02-04T18:57:34.879Z,0.00
2018-02-04T19:00:02.449Z,0.10
2018-02-04T19:02:29.976Z,0.00
2018-02-04T19:04:57.565Z,0.00
2018-02-04T19:07:25.151Z,0.00
2018-02-04T19:09:52.716Z,0.00
2018-02-04T19:12:20.281Z,0.00
2018-02-04T19:14:47.898Z,0.00
2018-02-04T19:17:15.445Z,-0.10
2018-02-04T19:19:43.047Z,-0.10
2018-02-04T19:22:10.609Z,-0.20
2018-02-04T19:24:38.209Z,0.00
2018-02-04T19:27:05.788Z,-0.10
2018-02-04T19:29:33.366Z,-0.10
2018-02-04T19:32:01.692Z,-0.30
2018-02-04T19:34:29.238Z,-0.30
2018-02-04T19:36:56.793Z,-0.20
2018-02-04T19:39:24.305Z,-0.30
2018-02-04T19:41:52.718Z,-0.30
2018-02-04T19:44:20.250Z,-0.30
2018-02-04T19:46:48.630Z,-0.40
2018-02-04T19:49:16.179Z,-0.40
2018-02-04T19:51:44.496Z,-0.40
2018-02-04T19:54:12.057Z,-0.40
2018-02-04T19:56:39.621Z,-0.50
2018-02-04T19:59:07.255Z,-0.40
2018-02-04T20:01:35.210Z,-0.60
2018-02-04T20:04:03.541Z,-0.50
2018-02-04T20:06:31.119Z,-0.50
2018-02-04T20:09:00.521Z,-0.50
2018-02-04T20:11:28.053Z,-0.50
2018-02-04T20:13:55.579Z,-0.50
2018-02-04T20:16:23.723Z,-0.50
2018-02-04T20:18:52.054Z,-0.40
2018-02-04T20:21:19.585Z,-0.40
2018-02-04T20:23:47.174Z,-0.50
2018-02-04T20:26:14.713Z,-0.40
2018-02-04T20:28:42.323Z,-0.40
2018-02-04T20:31:09.895Z,-0.40
2018-02-04T20:33:49.347Z,-0.50
2018-02-04T20:36:17.055Z,-0.50
2018-02-04T20:38:44.668Z,-0.40
2018-02-04T20:41:12.553Z,-0.40
2018-02-04T20:43:40.086Z,-0.40
2018-02-04T20:46:07.716Z,-0.50
2018-02-04T20:48:36.054Z,-0.50
2018-02-04T20:51:03.647Z,-0.50
2018-02-04T20:53:31.216Z,-0.50
2018-02-04T20:55:59.764Z,-0.50
2018-02-04T20:58:27.322Z,-0.50
2018-02-04T21:00:55.018Z,-0.50
2018-02-04T21:03:23.331Z,-0.50
2018-02-04T21:05:50.887Z,-0.60
2018-02-04T21:08:18.469Z,-0.50
2018-02-04T21:10:46.110Z,-0.50
2018-02-04T21:13:14.416Z,-0.40
2018-02-04T21:15:42.004Z,-0.40
2018-02-04T21:18:09.542Z,-0.50
2018-02-04T21:20:37.088Z,-0.60
2018-02-04T21:23:04.624Z,-0.70
2018-02-04T21:25:32.285Z,-0.70
2018-02-04T21:27:59.832Z,-0.60
2018-02-04T21:30:27.393Z,-0.60
2018-02-04T21:32:54.926Z,-0.60
2018-02-04T21:35:23.261Z,-0.70
2018-02-04T21:37:50.790Z,-0.70
2018-02-04T21:40:18.337Z,-0.70
2018-02-04T21:42:45.872Z,-0.70
2018-02-04T21:45:14.218Z,-0.60
2018-02-04T21:47:41.786Z,-0.60
2018-02-04T21:50:09.310Z,-0.60
2018-02-04T21:52:36.890Z,-0.60
2018-02-04T21:55:04.405Z,-0.60
2018-02-04T21:57:31.960Z,-0.60
2018-02-04T21:59:59.525Z,-0.50
2018-02-04T22:02:27.099Z,-0.50
2018-02-04T22:04:54.625Z,-0.40
2018-02-04T22:07:22.152Z,-0.50
2018-02-04T22:09:50.495Z,-0.50
2018-02-04T22:12:18.023Z,-0.50
2018-02-04T22:14:45.584Z,-0.50
2018-02-04T22:17:13.116Z,-0.40
2018-02-04T22:19:41.482Z,-0.40
2018-02-04T22:22:09.779Z,-0.50
2018-02-04T22:24:37.336Z,-0.60
2018-02-04T22:27:04.946Z,-0.60
2018-02-04T22:29:32.527Z,-0.60
2018-02-04T22:32:00.064Z,-0.60
2018-02-04T22:34:27.639Z,-0.60
2018-02-04T22:36:55.171Z,-0.70
2018-02-04T22:39:22.747Z,-0.70
2018-02-04T22:41:50.548Z,-0.70
2018-02-04T22:44:18.150Z,-0.70
2018-02-04T22:46:45.697Z,-0.70
2018-02-04T22:49:13.246Z,-0.80
2018-02-04T22:51:40.835Z,-0.90
2018-02-04T22:54:08.385Z,-0.90
2018-02-04T22:56:35.931Z,-0.80
2018-02-04T22:59:03.507Z,-0.90
2018-02-04T23:01:31.065Z,-0.90
2018-02-04T23:03:58.631Z,-1.00
2018-02-04T23:06:26.951Z,-1.00
2018-02-04T23:08:54.512Z,-1.00
2018-02-04T23:11:22.031Z,-0.90
2018-02-04T23:13:49.576Z,-0.90
2018-02-04T23:16:17.126Z,-1.00
2018-02-04T23:18:45.417Z,-0.90
2018-02-04T23:21:12.956Z,-0.90
2018-02-04T23:23:40.496Z,-0.90
2018-02-04T23:26:08.893Z,-0.90
2018-02-04T23:28:36.419Z,-0.90
2018-02-04T23:31:03.973Z,-0.80
2018-02-04T23:33:31.504Z,-0.80
2018-02-04T23:35:59.843Z,-0.90
2018-02-04T23:38:27.379Z,-0.90
2018-02-04T23:40:54.933Z,-0.90
2018-02-04T23:43:22.458Z,-0.80
2018-02-04T23:45:50.820Z,-0.80
2018-02-04T23:48:18.336Z,-0.80
2018-02-04T23:50:45.851Z,-0.80
2018-02-04T23:53:13.428Z,-0.80
2018-02-04T23:55:40.944Z,-0.70
2018-02-04T23:58:08.494Z,-0.70
